Time;durP1;ratioP1;P1;durP2;ratioP2;P2;SDS_P1;SDS_P2;PMS_P1;PMS_P2;Temp;Humidity;BMP_temperature;BMP_pressure;BME280_temperature;BME280_humidity;BME280_pressure;Samples;Min_cycle;Max_cycle;Signal;HPM_P1;HPM_P2
2022/06/09 00:01:40;;;;;;;7.63;5.00;;;;;;;21.07;92.64;99492.72;6242962;22;20004;-70
2022/06/09 00:04:27;;;;;;;5.88;5.28;;;;;;;21.03;92.62;99492.34;6243642;22;20004;-70
2022/06/09 00:06:59;;;;;;;5.78;5.28;;;;;;;21.03;92.75;99495.09;6243619;22;20079;-71
2022/06/09 00:09:38;;;;;;;6.22;5.63;;;;;;;21.00;93.01;99492.81;6241484;23;20000;-70
2022/06/09 00:12:05;;;;;;;6.05;5.50;;;;;;;20.99;93.18;99484.84;6243235;22;20000;-70
2022/06/09 00:14:31;;;;;;;5.93;5.38;;;;;;;20.97;93.43;99487.78;6243240;22;20310;-71
2022/06/09 00:16:56;;;;;;;6.80;6.10;;;;;;;20.95;93.43;99489.03;6243832;22;20110;-70
2022/06/09 00:19:22;;;;;;;6.65;5.70;;;;;;;20.87;93.42;99476.50;6243113;22;20008;-70
2022/06/09 00:21:47;;;;;;;6.03;5.43;;;;;;;20.90;94.13;99484.25;6242298;23;20008;-70
2022/06/09 00:24:13;;;;;;;6.75;6.15;;;;;;;20.91;94.53;99491.34;6243053;22;20000;-70
2022/06/09 00:26:40;;;;;;;5.93;5.30;;;;;;;20.78;94.55;99469.66;6243417;22;20012;-71
2022/06/09 00:29:05;;;;;;;6.13;5.63;;;;;;;20.86;94.33;99491.16;6243540;22;20008;-70
2022/06/09 00:31:32;;;;;;;6.03;5.43;;;;;;;20.79;94.24;99484.13;6243363;22;20004;-70
2022/06/09 00:33:58;;;;;;;5.18;4.68;;;;;;;20.81;94.49;99492.88;6243405;22;20000;-70
2022/06/09 00:36:24;;;;;;;7.55;5.82;;;;;;;20.77;94.97;99489.78;6241328;23;20000;-69
2022/06/09 00:38:49;;;;;;;10.75;5.72;;;;;;;20.79;94.97;99486.84;6243317;22;20011;-70
2022/06/09 00:41:15;;;;;;;6.00;5.10;;;;;;;20.76;94.97;99488.09;6243077;22;20008;-70
2022/06/09 00:43:42;;;;;;;6.05;5.45;;;;;;;20.74;95.11;99494.84;6244907;22;20031;-70
2022/06/09 00:46:10;;;;;;;5.88;5.28;;;;;;;20.73;95.10;99493.16;6245337;22;20008;-70
2022/06/09 00:48:53;;;;;;;6.90;6.13;;;;;;;20.66;94.88;99495.09;6245419;23;20027;-70
2022/06/09 00:51:46;;;;;;;5.20;4.70;;;;;;;20.68;95.50;99512.06;6245314;22;20070;-70
2022/06/09 00:54:16;;;;;;;6.03;5.43;;;;;;;20.61;96.25;99497.63;6245208;22;20287;-69
2022/06/09 00:56:48;;;;;;;6.10;5.50;;;;;;;20.62;96.73;99502.03;6245214;22;20087;-69
2022/06/09 00:59:17;;;;;;;6.75;5.22;;;;;;;20.66;97.14;99511.47;6244991;22;20449;-69
2022/06/09 01:01:44;;;;;;;6.47;5.25;;;;;;;20.64;97.36;99508.94;6245125;22;20324;-71
2022/06/09 01:04:13;;;;;;;5.63;5.13;;;;;;;20.67;97.68;99511.22;6244705;22;20032;-70
2022/06/09 01:06:47;;;;;;;6.63;5.35;;;;;;;20.63;98.16;99503.72;6243698;23;20421;-70
2022/06/09 01:09:16;;;;;;;5.65;5.13;;;;;;;20.66;98.37;99514.19;6245303;22;20011;-70
2022/06/09 01:11:44;;;;;;;6.32;5.72;;;;;;;20.66;97.89;99511.47;6245094;22;20000;-70
2022/06/09 01:14:13;;;;;;;7.65;5.05;;;;;;;20.67;97.86;99513.94;6245172;22;20004;-70
2022/06/09 01:17:18;;;;;;;6.05;5.45;;;;;;;20.62;97.69;99500.16;6244915;22;20485;-70
2022/06/09 01:20:04;;;;;;;;;;;;;;;20.65;98.65;99502.44;6245268;22;20007;-71
2022/06/09 01:23:00;;;;;;;6.95;6.25;;;;;;;20.60;98.10;99485.91;6244726;22;19918;-70
2022/06/09 01:25:38;;;;;;;8.23;6.22;;;;;;;20.67;97.40;99497.59;6244722;23;20039;-70
2022/06/09 01:28:48;;;;;;;10.18;6.63;;;;;;;20.67;97.39;99496.78;6243375;23;20012;-70
2022/06/09 01:31:24;;;;;;;7.72;6.65;;;;;;;20.67;97.85;99491.31;6211449;23;20000;-70
2022/06/09 01:34:18;;;;;;;10.73;7.30;;;;;;;20.60;97.46;99488.63;6211823;23;20008;-70
2022/06/09 01:36:57;;;;;;;8.73;6.75;;;;;;;20.63;97.49;99484.66;6225209;22;20746;-70
2022/06/09 01:39:53;;;;;;;7.70;6.95;;;;;;;20.61;97.96;99492.19;6244487;22;20000;-70
2022/06/09 01:42:30;;;;;;;7.10;6.50;;;;;;;20.58;98.27;99481.72;6242069;23;20012;-70
2022/06/09 01:45:13;;;;;;;7.45;6.63;;;;;;;20.55;98.03;99474.84;6244983;22;20008;-70
2022/06/09 01:47:57;;;;;;;7.88;7.07;;;;;;;20.53;98.16;99473.38;6244756;22;20019;-70
2022/06/09 01:50:42;;;;;;;9.13;6.30;;;;;;;20.40;98.45;99462.53;6244721;23;19999;-70
2022/06/09 01:53:22;;;;;;;6.50;5.90;;;;;;;20.44;98.17;99471.97;6244465;22;20011;-70
2022/06/09 01:56:12;;;;;;;9.27;6.50;;;;;;;20.45;97.47;99474.47;6243121;23;20007;-72
2022/06/09 01:58:43;;;;;;;6.60;5.88;;;;;;;20.41;97.48;99462.31;6244383;22;20345;-71
2022/06/09 02:01:12;;;;;;;7.68;5.88;;;;;;;20.38;97.59;99464.66;6242847;23;20012;-71
2022/06/09 02:03:42;;;;;;;6.50;5.78;;;;;;;20.33;98.10;99453.56;6244487;22;20004;-71
2022/06/09 02:06:10;;;;;;;7.05;6.35;;;;;;;20.29;98.27;99455.06;6244444;22;20000;-71
2022/06/09 02:08:36;;;;;;;8.98;6.60;;;;;;;20.27;98.74;99459.88;6245022;22;20000;-73
2022/06/09 02:11:09;;;;;;;6.75;6.10;;;;;;;20.20;98.92;99457.22;6244579;22;20000;-72
2022/06/09 02:13:40;;;;;;;9.63;7.18;;;;;;;20.20;98.99;99465.38;6244437;22;20332;-72
2022/06/09 02:16:08;;;;;;;9.82;6.85;;;;;;;20.20;99.47;99462.66;6244475;22;20000;-71
2022/06/09 02:18:41;;;;;;;7.88;7.07;;;;;;;20.21;99.73;99469.78;6244179;22;20067;-71
2022/06/09 02:21:18;;;;;;;8.02;7.22;;;;;;;20.18;99.74;99457.44;6244766;22;20037;-72
2022/06/09 02:23:45;;;;;;;10.45;7.05;;;;;;;20.14;99.80;99466.25;6244489;22;20007;-71
2022/06/09 02:26:11;;;;;;;10.60;7.45;;;;;;;20.16;99.99;99467.69;6242506;23;20100;-71
2022/06/09 02:28:36;;;;;;;9.02;7.30;;;;;;;20.13;100.00;99470.84;6244479;22;20036;-70
2022/06/09 02:31:02;;;;;;;7.78;7.07;;;;;;;20.16;99.94;99470.41;6244178;23;20425;-70
2022/06/09 02:33:28;;;;;;;7.47;6.78;;;;;;;20.17;100.00;99474.84;6243992;22;20004;-70
2022/06/09 02:35:54;;;;;;;10.80;7.35;;;;;;;20.12;100.00;99460.19;6242611;23;20417;-70
2022/06/09 02:38:21;;;;;;;8.30;7.50;;;;;;;20.12;100.00;99455.56;6243987;22;20031;-70
2022/06/09 02:40:47;;;;;;;7.63;6.93;;;;;;;20.16;100.00;99469.59;6244240;22;20000;-70
2022/06/09 02:43:13;;;;;;;7.47;6.70;;;;;;;20.12;100.00;99466.47;6243873;22;20000;-71
2022/06/09 02:45:39;;;;;;;7.82;6.97;;;;;;;20.11;100.00;99466.66;6242428;23;20103;-70
2022/06/09 02:48:06;;;;;;;7.68;6.97;;;;;;;20.10;100.00;99473.16;6243845;22;20000;-71
2022/06/09 02:50:32;;;;;;;11.95;6.55;;;;;;;20.08;100.00;99481.53;6243868;22;20019;-71
2022/06/09 02:52:58;;;;;;;7.57;6.75;;;;;;;20.08;100.00;99481.53;6244094;22;20004;-71
2022/06/09 02:55:24;;;;;;;7.32;6.28;;;;;;;20.07;100.00;99474.44;6244002;22;20058;-71
2022/06/09 02:57:50;;;;;;;7.05;6.45;;;;;;;20.08;100.00;99475.25;6243996;22;20007;-71
2022/06/09 03:00:16;;;;;;;6.75;6.05;;;;;;;20.08;100.00;99478.81;6243483;23;20016;-72
2022/06/09 03:02:53;;;;;;;6.70;6.10;;;;;;;20.04;99.74;99463.97;6243264;23;20054;-71
2022/06/09 03:05:18;;;;;;;9.98;6.93;;;;;;;20.05;100.00;99467.50;6243022;22;20000;-71
2022/06/09 03:07:44;;;;;;;8.32;6.53;;;;;;;20.07;100.00;99471.72;6243716;22;20011;-71
2022/06/09 03:10:09;;;;;;;7.43;6.70;;;;;;;20.09;100.00;99475.03;6243671;22;20012;-71
2022/06/09 03:12:35;;;;;;;7.47;6.68;;;;;;;20.07;100.00;99470.84;6243020;22;20000;-71
2022/06/09 03:15:01;;;;;;;8.93;6.22;;;;;;;20.09;100.00;99472.31;6242962;22;20087;-72
2022/06/09 03:17:26;;;;;;;7.93;6.07;;;;;;;20.02;100.00;99460.63;6243145;22;20083;-71
2022/06/09 03:19:52;;;;;;;9.50;6.60;;;;;;;20.04;100.00;99463.97;6243105;22;20007;-71
2022/06/09 03:22:18;;;;;;;9.85;6.60;;;;;;;20.02;100.00;99460.63;6242625;22;20000;-71
2022/06/09 03:24:44;;;;;;;6.20;5.60;;;;;;;20.10;100.00;99465.81;6243270;22;20004;-71
2022/06/09 03:27:09;;;;;;;8.05;6.40;;;;;;;20.10;100.00;99463.09;6240680;22;20012;-72
2022/06/09 03:29:35;;;;;;;6.90;6.20;;;;;;;20.11;100.00;99466.66;6242906;22;20587;-72
2022/06/09 03:32:01;;;;;;;6.63;6.03;;;;;;;20.12;100.00;99462.94;6242758;22;20027;-71
2022/06/09 03:34:26;;;;;;;7.07;6.25;;;;;;;20.10;100.00;99460.38;6242990;22;20004;-72
2022/06/09 03:36:53;;;;;;;7.63;6.00;;;;;;;20.11;100.00;99453.03;6239836;23;19996;-71
2022/06/09 03:39:18;;;;;;;11.27;6.63;;;;;;;20.15;100.00;99441.53;6243108;22;20000;-71
2022/06/09 03:41:44;;;;;;;8.55;6.03;;;;;;;20.25;100.00;99451.97;6242431;22;20066;-71
2022/06/09 03:44:09;;;;;;;7.28;6.57;;;;;;;20.25;100.00;99445.69;6242284;23;20008;-71
2022/06/09 03:46:35;;;;;;;6.63;6.03;;;;;;;20.30;99.51;99443.97;6242741;22;20075;-71
2022/06/09 03:49:02;;;;;;;9.18;6.22;;;;;;;20.41;99.34;99456.06;6241197;22;20000;-71
2022/06/09 03:51:27;;;;;;;7.63;6.50;;;;;;;20.43;99.67;99445.75;6242809;22;20022;-72
2022/06/09 03:53:53;;;;;;;7.32;6.10;;;;;;;20.40;99.30;99440.75;6242986;22;20425;-72
2022/06/09 03:56:21;;;;;;;9.02;6.18;;;;;;;20.47;98.51;99447.03;6242774;22;20545;-71
2022/06/09 03:58:47;;;;;;;7.18;6.15;;;;;;;20.51;97.94;99449.09;6242144;22;20066;-71
2022/06/09 04:01:17;;;;;;;8.50;5.82;;;;;;;20.52;97.34;99448.03;6240904;23;20019;-71
2022/06/09 04:03:43;;;;;;;7.68;6.20;;;;;;;20.56;97.28;99451.13;6242673;23;20010;-71
2022/06/09 04:06:20;;;;;;;9.98;5.60;;;;;;;20.60;96.68;99458.66;6240383;23;20024;-71
2022/06/09 04:08:45;;;;;;;10.88;6.05;;;;;;;20.59;96.33;99453.41;6241471;22;20015;-71
2022/06/09 04:11:11;;;;;;;8.15;5.88;;;;;;;20.64;96.41;99470.81;6240219;23;20027;-71
2022/06/09 04:13:38;;;;;;;7.05;6.35;;;;;;;20.66;96.07;99476.03;6242050;22;20066;-72
2022/06/09 04:16:09;;;;;;;7.45;5.75;;;;;;;20.70;96.07;99466.34;6241889;22;20004;-72
2022/06/09 04:18:34;;;;;;;5.85;5.25;;;;;;;20.71;96.03;99457.97;6241468;22;20004;-72
2022/06/09 04:21:00;;;;;;;6.68;5.80;;;;;;;20.68;96.44;99454.81;6242191;22;20015;-72
2022/06/09 04:23:27;;;;;;;8.02;5.97;;;;;;;20.70;96.41;99459.00;6241721;22;20082;-72
2022/06/09 04:25:53;;;;;;;8.18;5.43;;;;;;;20.71;95.80;99465.28;6242580;22;20081;-72
2022/06/09 04:28:18;;;;;;;6.70;6.00;;;;;;;20.76;95.03;99462.75;6242027;22;20001;-71
2022/06/09 04:30:46;;;;;;;6.57;5.90;;;;;;;20.78;94.61;99461.47;6240915;23;20018;-71
2022/06/09 04:33:12;;;;;;;6.60;5.95;;;;;;;20.80;94.61;99467.50;6241733;22;20004;-72
2022/06/09 04:35:38;;;;;;;8.38;6.00;;;;;;;20.82;94.24;99464.56;6241802;22;20046;-72
2022/06/09 04:38:03;;;;;;;7.82;6.18;;;;;;;20.83;93.75;99466.25;6241872;22;20094;-72
2022/06/09 04:40:38;;;;;;;7.20;5.50;;;;;;;20.85;93.75;99462.25;6239879;23;20016;-72
2022/06/09 04:43:07;;;;;;;6.75;6.05;;;;;;;20.87;93.52;99471.06;6241930;22;20389;-71
2022/06/09 04:45:33;;;;;;;8.73;5.75;;;;;;;20.81;93.38;99460.19;6241826;22;20007;-72
2022/06/09 04:47:59;;;;;;;7.70;5.85;;;;;;;20.91;93.23;99466.81;6242047;22;20008;-71
2022/06/09 04:50:25;;;;;;;8.45;6.43;;;;;;;20.94;93.33;99469.13;6240159;23;20139;-72
2022/06/09 04:52:51;;;;;;;8.45;6.30;;;;;;;20.92;92.85;99465.75;6242373;22;20083;-72
2022/06/09 04:55:17;;;;;;;6.90;6.25;;;;;;;21.02;92.68;99476.22;6241645;22;20004;-72
2022/06/09 04:57:42;;;;;;;6.93;6.22;;;;;;;20.99;92.65;99471.22;6242203;22;20008;-72
2022/06/09 05:00:11;;;;;;;7.05;5.28;;;;;;;21.12;92.36;99487.47;6240117;23;20433;-72
2022/06/09 05:02:37;;;;;;;7.70;6.10;;;;;;;21.14;92.01;99485.31;6241446;22;20015;-72
2022/06/09 05:05:03;;;;;;;6.45;5.85;;;;;;;21.17;91.75;99480.28;6242072;22;20004;-72
2022/06/09 05:07:28;;;;;;;7.65;6.28;;;;;;;21.24;91.30;99483.78;6240924;23;20440;-71
2022/06/09 05:09:54;;;;;;;8.73;5.22;;;;;;;21.28;91.41;99478.72;6242949;22;20005;-71
2022/06/09 05:12:20;;;;;;;5.35;4.85;;;;;;;21.38;91.25;99489.97;6242431;22;20004;-71
2022/06/09 05:14:46;;;;;;;5.10;4.60;;;;;;;21.44;91.21;99492.59;6242520;22;19996;-71
2022/06/09 05:17:12;;;;;;;5.55;4.07;;;;;;;21.48;90.48;99495.72;6242676;22;20019;-72
2022/06/09 05:19:38;;;;;;;6.45;5.07;;;;;;;21.50;89.75;99499.91;6242650;22;20028;-71
2022/06/09 05:22:03;;;;;;;7.97;5.15;;;;;;;21.51;89.91;99506.19;6242443;22;20370;-72
2022/06/09 05:24:29;;;;;;;8.32;4.95;;;;;;;21.52;89.91;99514.16;6240746;23;20015;-71
2022/06/09 05:26:54;;;;;;;7.47;5.20;;;;;;;21.54;89.71;99520.22;6242805;22;20008;-72
2022/06/09 05:29:20;;;;;;;5.55;4.53;;;;;;;21.55;89.44;99523.78;6242167;23;20015;-71
2022/06/09 05:31:46;;;;;;;7.60;4.97;;;;;;;21.53;89.89;99520.44;6244818;23;19996;-71
2022/06/09 05:34:11;;;;;;;6.78;4.97;;;;;;;21.49;89.76;99509.16;6244453;23;20007;-71
2022/06/09 05:36:37;;;;;;;7.50;4.63;;;;;;;21.52;89.70;99511.44;6244875;22;20011;-71
2022/06/09 05:47:19;;;;;;;3.92;3.63;;;;;;;21.69;90.22;99514.41;6243431;23;20058;-71
2022/06/09 05:49:47;;;;;;;4.60;4.05;;;;;;;21.72;89.67;99513.97;6244087;22;20007;-71
2022/06/09 05:52:20;;;;;;;3.90;3.60;;;;;;;21.74;89.11;99512.69;6243716;22;20020;-71
2022/06/09 05:54:46;;;;;;;4.93;3.83;;;;;;;21.81;88.59;99507.19;6244292;22;20429;-71
2022/06/09 05:57:11;;;;;;;7.30;3.72;;;;;;;21.85;88.88;99500.19;6244284;22;20018;-71
2022/06/09 05:59:37;;;;;;;5.25;3.22;;;;;;;21.99;89.13;99512.66;6243483;22;20020;-71
2022/06/09 06:02:05;;;;;;;4.50;3.47;;;;;;;22.05;88.22;99493.44;6242782;22;20011;-71
2022/06/09 06:04:31;;;;;;;4.38;3.80;;;;;;;22.15;87.34;99504.69;6242767;22;20034;-71
2022/06/09 06:06:57;;;;;;;5.47;3.72;;;;;;;22.20;86.84;99498.53;6241454;23;20000;-71
2022/06/09 06:09:22;;;;;;;6.30;4.60;;;;;;;22.24;85.95;99513.38;6243668;22;20000;-71
2022/06/09 06:11:49;;;;;;;6.10;3.72;;;;;;;22.29;85.36;99521.75;6243790;22;19996;-71
2022/06/09 06:14:15;;;;;;;4.63;4.22;;;;;;;22.32;85.13;99524.84;6243586;22;20417;-71
2022/06/09 06:16:41;;;;;;;6.72;3.88;;;;;;;22.33;84.29;99518.34;6243680;22;20444;-71
2022/06/09 06:19:09;;;;;;;5.28;4.20;;;;;;;22.37;84.60;99515.97;6243578;22;20000;-71
2022/06/09 06:21:37;;;;;;;12.02;4.93;;;;;;;22.28;84.99;99498.22;6243581;22;20061;-71
2022/06/09 06:24:03;;;;;;;4.95;4.45;;;;;;;22.37;84.89;99510.50;6243734;22;20071;-71
2022/06/09 06:26:29;;;;;;;4.75;4.35;;;;;;;22.41;85.15;99525.38;6241794;23;20016;-72
2022/06/09 06:28:55;;;;;;;5.60;5.10;;;;;;;22.43;85.42;99523.25;6241687;23;20012;-71
2022/06/09 06:31:20;;;;;;;5.25;4.50;;;;;;;22.43;84.97;99517.78;6243298;22;20012;-71
2022/06/09 06:33:46;;;;;;;6.03;4.38;;;;;;;22.46;84.98;99520.03;6243540;22;20008;-71
2022/06/09 06:36:12;;;;;;;6.88;5.38;;;;;;;22.46;84.29;99513.75;6243289;23;20079;-71
2022/06/09 06:38:38;;;;;;;4.93;4.40;;;;;;;22.51;84.53;99520.25;6241869;23;20004;-71
2022/06/09 06:41:08;;;;;;;5.10;4.53;;;;;;;22.56;84.42;99508.59;6243065;22;20035;-72
2022/06/09 06:43:35;;;;;;;5.93;5.05;;;;;;;22.58;84.18;99501.00;6243215;22;20013;-72
2022/06/09 06:46:02;;;;;;;6.45;4.75;;;;;;;22.67;83.88;99505.94;6243373;22;20119;-71
2022/06/09 06:48:32;;;;;;;4.57;4.20;;;;;;;22.76;83.76;99506.44;6243083;22;20008;-71
2022/06/09 06:50:58;;;;;;;7.20;5.80;;;;;;;22.73;83.57;99490.50;6243429;22;20063;-71
2022/06/09 06:53:24;;;;;;;5.68;5.18;;;;;;;22.84;83.36;99500.63;6242918;22;20000;-71
2022/06/09 06:55:50;;;;;;;6.93;5.95;;;;;;;22.78;82.71;99504.28;6243189;22;20055;-71
2022/06/09 06:58:16;;;;;;;9.02;6.57;;;;;;;22.84;82.01;99498.72;6243325;22;20008;-71
2022/06/09 07:00:42;;;;;;;10.48;5.97;;;;;;;22.88;82.32;99497.19;6242999;22;20353;-71
2022/06/09 07:03:09;;;;;;;8.55;6.20;;;;;;;22.94;82.33;99495.41;6241717;22;20441;-71
2022/06/09 07:05:36;;;;;;;5.80;5.25;;;;;;;23.07;82.69;99508.88;6242014;22;20023;-71
2022/06/09 07:08:03;;;;;;;7.15;5.05;;;;;;;23.09;81.65;99501.28;6241970;22;20000;-72
2022/06/09 07:10:31;;;;;;;8.43;4.63;;;;;;;23.12;79.19;99501.63;6241469;22;20027;-72
2022/06/09 07:12:57;;;;;;;7.15;4.63;;;;;;;23.18;77.96;99510.81;6241766;22;20000;-71
2022/06/09 07:15:22;;;;;;;5.60;4.35;;;;;;;23.31;77.63;99511.44;6241561;22;20000;-71
2022/06/09 07:17:48;;;;;;;6.43;3.13;;;;;;;23.50;76.75;99498.50;6241604;23;20015;-71
2022/06/09 07:20:15;;;;;;;8.02;3.83;;;;;;;23.63;74.15;99493.63;6241713;23;20008;-72
2022/06/09 07:22:41;;;;;;;6.97;3.28;;;;;;;23.84;73.94;99500.41;6241495;22;20007;-71
2022/06/09 07:25:08;;;;;;;5.57;3.75;;;;;;;24.06;73.26;99499.56;6241631;22;20445;-72
2022/06/09 07:27:34;;;;;;;4.82;3.55;;;;;;;24.22;72.32;99498.81;6241697;22;20015;-72
2022/06/09 07:30:00;;;;;;;4.88;3.47;;;;;;;24.40;70.78;99493.16;6241609;22;20007;-72
2022/06/09 07:32:26;;;;;;;4.18;3.08;;;;;;;24.59;70.96;99487.47;6241425;22;20023;-72
2022/06/09 07:34:52;;;;;;;7.93;3.90;;;;;;;24.70;68.10;99472.91;6241667;22;20314;-72
2022/06/09 07:37:18;;;;;;;9.18;3.30;;;;;;;24.96;68.03;99484.13;6239672;23;20405;-72
2022/06/09 07:39:43;;;;;;;4.88;3.70;;;;;;;25.13;67.11;99473.97;6241451;22;20361;-72
2022/06/09 07:42:09;;;;;;;5.10;3.50;;;;;;;25.28;65.78;99462.41;6239978;23;20019;-72
2022/06/09 07:44:35;;;;;;;4.57;4.22;;;;;;;25.52;64.41;99472.16;6241559;22;20008;-72
2022/06/09 07:47:00;;;;;;;6.40;4.88;;;;;;;25.78;61.43;99474.19;6241796;22;20011;-72
2022/06/09 07:49:26;;;;;;;5.28;4.55;;;;;;;25.91;61.29;99465.56;6241153;23;20111;-72
2022/06/09 07:51:52;;;;;;;6.47;4.88;;;;;;;26.07;60.75;99460.06;6241342;22;20004;-73
2022/06/09 07:54:17;;;;;;;7.60;5.63;;;;;;;26.20;58.92;99467.94;6241157;22;20008;-72
2022/06/09 07:56:44;;;;;;;6.53;5.88;;;;;;;26.28;57.97;99470.22;6241676;22;20016;-72
2022/06/09 07:59:10;;;;;;;9.05;5.45;;;;;;;26.39;58.37;99461.03;6241359;22;20019;-72
2022/06/09 08:01:36;;;;;;;6.57;5.68;;;;;;;26.42;57.40;99462.41;6241580;22;20010;-73
2022/06/09 08:04:02;;;;;;;6.18;5.68;;;;;;;26.34;56.73;99455.44;6241665;22;20413;-72
2022/06/09 08:06:28;;;;;;;6.68;5.50;;;;;;;26.45;57.04;99468.25;6241188;22;20007;-72
2022/06/09 08:08:57;;;;;;;6.03;5.15;;;;;;;26.42;56.45;99470.66;6243250;22;20062;-72
2022/06/09 08:11:23;;;;;;;6.70;5.03;;;;;;;26.37;56.57;99473.34;6268212;22;20069;-73
2022/06/09 08:13:49;;;;;;;7.35;4.90;;;;;;;26.29;56.77;99469.16;6244442;22;20007;-73
2022/06/09 08:16:15;;;;;;;5.55;4.72;;;;;;;26.18;56.00;99461.84;6244262;22;20006;-73
2022/06/09 08:18:40;;;;;;;4.90;4.10;;;;;;;26.10;56.20;99459.56;6242807;23;20016;-73
2022/06/09 08:21:06;;;;;;;5.68;3.78;;;;;;;26.17;56.43;99471.19;6244315;22;20083;-73
2022/06/09 08:23:31;;;;;;;4.85;3.80;;;;;;;26.12;56.84;99456.56;6244181;22;20007;-73
2022/06/09 08:26:07;;;;;;;4.22;3.33;;;;;;;26.25;57.02;99462.47;6242286;23;20014;-73
2022/06/09 08:28:33;;;;;;;5.47;3.58;;;;;;;26.27;56.60;99471.31;6244345;22;20091;-73
2022/06/09 08:30:58;;;;;;;5.03;3.25;;;;;;;26.24;56.50;99465.47;6244213;22;20147;-72
2022/06/09 08:33:26;;;;;;;4.18;3.20;;;;;;;26.25;56.88;99461.66;6243980;22;20031;-73
2022/06/09 08:35:53;;;;;;;5.60;3.20;;;;;;;26.28;56.13;99459.22;6244611;22;20019;-73
2022/06/09 08:38:19;;;;;;;4.53;3.65;;;;;;;26.33;55.70;99463.94;6244146;22;20004;-73
2022/06/09 08:40:51;;;;;;;4.75;3.78;;;;;;;26.29;56.16;99463.66;6242613;23;20007;-72
2022/06/09 08:43:16;;;;;;;7.72;4.53;;;;;;;26.24;56.59;99465.47;6244292;22;20007;-72
2022/06/09 08:45:44;;;;;;;5.68;4.32;;;;;;;26.19;56.81;99455.28;6244110;23;20000;-72
2022/06/09 08:48:37;;;;;;;4.90;4.22;;;;;;;26.27;57.39;99446.56;6244459;22;20460;-72
2022/06/09 08:51:10;;;;;;;4.57;4.18;;;;;;;26.41;57.53;99438.75;6244044;22;20212;-73
2022/06/09 08:53:44;;;;;;;6.20;5.18;;;;;;;26.62;56.94;99446.16;6244207;22;20407;-73
2022/06/09 08:56:22;;;;;;;5.85;5.25;;;;;;;26.78;55.44;99441.63;6242968;22;20004;-73
2022/06/09 08:58:56;;;;;;;5.78;5.22;;;;;;;26.94;54.71;99435.19;6242138;22;20459;-72
2022/06/09 09:01:46;;;;;;;5.05;4.55;;;;;;;27.14;54.88;99430.69;6241880;22;20008;-73
2022/06/09 09:04:37;;;;;;;6.65;4.90;;;;;;;27.26;53.53;99423.09;6241415;23;20011;-73
2022/06/09 09:07:02;;;;;;;5.63;4.45;;;;;;;27.52;52.36;99424.94;6229960;23;20307;-73
2022/06/09 09:09:31;;;;;;;5.07;4.57;;;;;;;27.70;51.42;99415.41;6244061;22;20169;-73
2022/06/09 09:12:12;;;;;;;5.20;4.57;;;;;;;27.89;50.55;99413.88;6243967;22;20004;-73
2022/06/09 09:14:44;;;;;;;5.38;4.88;;;;;;;27.98;49.95;99418.59;6243940;22;20000;-73
2022/06/09 09:17:17;;;;;;;5.45;4.95;;;;;;;28.10;49.97;99412.84;6243782;22;20004;-73
2022/06/09 09:20:00;;;;;;;6.03;5.00;;;;;;;28.25;48.12;99422.00;6243582;22;20000;-73
2022/06/09 09:22:53;;;;;;;5.25;4.75;;;;;;;28.35;48.44;99418.47;6242074;23;20028;-73
2022/06/09 09:25:48;;;;;;;5.35;4.85;;;;;;;28.39;47.88;99417.66;6243729;22;19999;-73
2022/06/09 09:28:20;;;;;;;6.93;4.43;;;;;;;28.45;47.97;99419.38;6243510;22;20019;-73
2022/06/09 09:31:14;;;;;;;4.55;4.15;;;;;;;28.41;47.65;99417.38;6243784;22;20007;-73
2022/06/09 09:33:39;;;;;;;5.40;4.90;;;;;;;28.26;47.87;99415.41;6243174;23;20027;-73
2022/06/09 09:36:24;;;;;;;7.28;4.70;;;;;;;28.24;48.57;99414.84;6243646;22;20016;-73
2022/06/09 09:39:10;;;;;;;5.30;4.80;;;;;;;28.15;48.71;99424.72;6242165;23;20031;-73
2022/06/09 09:41:38;;;;;;;8.75;5.38;;;;;;;28.13;49.02;99420.59;6243553;22;20031;-73
2022/06/09 09:44:16;;;;;;;6.70;5.10;;;;;;;28.00;48.02;99402.63;6243855;22;20004;-73
2022/06/09 09:46:46;;;;;;;6.45;5.35;;;;;;;28.05;47.48;99419.19;6241458;23;20421;-73
2022/06/09 09:49:22;;;;;;;5.50;4.97;;;;;;;28.00;47.95;99405.38;6243341;22;20028;-73
2022/06/09 09:51:49;;;;;;;4.18;3.88;;;;;;;28.05;47.77;99412.84;6243459;22;20426;-73
2022/06/09 09:54:23;;;;;;;4.80;4.40;;;;;;;27.98;47.75;99404.81;6241921;23;20441;-73
2022/06/09 09:57:00;;;;;;;5.28;4.82;;;;;;;27.87;47.88;99399.53;6243329;22;20066;-73
2022/06/09 09:59:26;;;;;;;4.53;4.13;;;;;;;27.83;48.61;99410.22;6241183;23;20028;-73
2022/06/09 10:10:26;;;;;;;4.75;4.35;;;;;;;27.53;48.67;99407.31;6243238;23;20022;-72
2022/06/09 10:12:56;;;;;;;8.63;4.53;;;;;;;27.42;48.83;99400.09;6243401;22;20000;-72
2022/06/09 10:15:23;;;;;;;5.10;4.55;;;;;;;27.46;48.17;99401.19;6243069;22;20000;-72
2022/06/09 10:18:02;;;;;;;3.90;3.60;;;;;;;27.46;47.19;99408.63;6243288;22;20927;-73
2022/06/09 10:20:30;;;;;;;3.72;3.40;;;;;;;27.44;47.72;99402.56;6242990;22;20821;-73
2022/06/09 10:22:58;;;;;;;4.57;4.18;;;;;;;27.44;47.70;99389.59;6243262;23;20043;-72
2022/06/09 10:25:55;;;;;;;6.15;4.40;;;;;;;27.45;48.19;99394.03;6243152;22;20008;-73
2022/06/09 10:28:30;;;;;;;5.63;3.97;;;;;;;27.54;48.46;99386.94;6203443;22;20020;-72
2022/06/09 10:31:36;;;;;;;4.05;3.65;;;;;;;27.58;46.23;99381.72;6241612;23;20041;-72
2022/06/09 10:34:37;;;;;;;3.70;3.40;;;;;;;27.67;45.30;99388.38;6238366;23;20008;-72
2022/06/09 10:37:30;;;;;;;4.15;3.75;;;;;;;27.67;44.90;99386.47;6243145;22;20039;-73
2022/06/09 10:40:15;;;;;;;6.72;3.50;;;;;;;27.64;45.14;99378.72;6243013;23;20008;-72
2022/06/09 10:42:50;;;;;;;3.63;3.33;;;;;;;27.65;45.47;99380.38;6242933;22;20015;-72
2022/06/09 10:45:21;;;;;;;3.75;3.45;;;;;;;27.63;45.83;99379.81;6242936;22;20340;-72
2022/06/09 10:56:41;;;;;;;5.30;3.22;;;;;;;27.72;45.84;99358.06;6242699;23;20055;-72
2022/06/09 10:59:26;;;;;;;3.40;3.10;;;;;;;27.68;45.38;99352.28;6242767;22;20059;-73
2022/06/09 11:01:52;;;;;;;5.15;3.63;;;;;;;27.59;45.25;99362.16;6240851;23;20042;-73
2022/06/09 11:04:18;;;;;;;7.07;3.80;;;;;;;27.27;48.82;99355.09;6242512;22;20417;-72
2022/06/09 11:06:57;;;;;;;5.43;3.50;;;;;;;27.14;49.86;99372.06;6242722;22;20001;-73
2022/06/09 11:09:36;;;;;;;4.78;3.60;;;;;;;27.02;50.55;99369.47;6242725;22;20000;-72
2022/06/09 11:12:43;;;;;;;3.85;3.42;;;;;;;26.91;51.29;99373.25;6242674;22;20333;-72
2022/06/09 11:15:15;;;;;;;6.60;3.60;;;;;;;26.80;52.75;99374.25;6227331;22;20605;-73
2022/06/09 11:17:57;;;;;;;6.57;3.63;;;;;;;26.64;55.25;99366.13;6242518;23;20004;-73
2022/06/09 11:20:22;;;;;;;7.72;4.18;;;;;;;26.56;58.76;99381.13;6242261;22;20421;-74
2022/06/09 11:22:59;;;;;;;4.65;4.15;;;;;;;26.46;59.57;99376.38;6241974;23;20110;-74
2022/06/09 11:25:47;;;;;;;6.55;4.13;;;;;;;26.23;60.94;99353.84;6242102;22;20062;-73
2022/06/09 11:28:21;;;;;;;9.32;4.97;;;;;;;26.20;65.63;99371.72;6242128;22;20046;-73
2022/06/09 11:31:15;;;;;;;4.63;4.20;;;;;;;26.09;65.91;99369.09;6242183;23;20054;-73
2022/06/09 11:33:52;;;;;;;5.78;4.88;;;;;;;25.91;67.31;99361.16;6242031;23;20011;-73
2022/06/09 11:36:33;;;;;;;5.07;4.57;;;;;;;25.88;69.09;99373.50;6242050;22;20042;-73
2022/06/09 11:39:21;;;;;;;6.43;4.55;;;;;;;25.84;69.46;99385.25;6242239;22;20004;-73
2022/06/09 11:42:05;;;;;;;5.80;5.03;;;;;;;25.68;71.52;99369.66;6242232;22;20026;-73
2022/06/09 11:44:35;;;;;;;7.23;5.00;;;;;;;25.60;75.22;99368.19;6240522;23;20016;-73
2022/06/09 11:47:14;;;;;;;5.78;5.22;;;;;;;25.53;75.40;99373.03;6242070;22;20004;-73
2022/06/09 11:49:50;;;;;;;5.55;5.05;;;;;;;25.46;77.68;99368.81;6241937;22;20392;-74
2022/06/09 11:52:37;;;;;;;5.50;5.00;;;;;;;25.35;76.11;99359.63;6241797;22;20032;-74
2022/06/09 11:55:24;;;;;;;5.70;4.75;;;;;;;25.30;77.01;99351.25;6242136;22;20337;-73
2022/06/09 11:57:51;;;;;;;6.43;5.30;;;;;;;25.28;75.88;99352.59;6241892;23;20337;-73
2022/06/09 12:00:21;;;;;;;9.45;4.65;;;;;;;25.24;76.57;99362.44;6241610;22;20016;-73
2022/06/09 12:02:56;;;;;;;4.97;4.50;;;;;;;25.22;78.00;99368.19;6240107;23;20023;-73
2022/06/09 12:05:28;;;;;;;5.80;5.20;;;;;;;25.20;77.04;99372.25;6241551;23;20091;-73
2022/06/09 12:08:31;;;;;;;5.10;4.70;;;;;;;25.19;76.94;99367.84;6242100;22;20027;-73
2022/06/09 12:11:19;;;;;;;6.25;5.18;;;;;;;25.19;76.40;99360.44;6241960;23;20003;-73
2022/06/09 12:14:00;;;;;;;4.78;4.30;;;;;;;25.21;76.69;99365.69;6241904;22;20050;-73
2022/06/09 12:16:27;;;;;;;5.28;4.70;;;;;;;25.23;76.40;99360.75;6240094;23;20015;-73